createdAt,value
2023-03-04T00:02:37.061Z,21.54
2023-03-04T00:07:38.475Z,21.72
2023-03-04T00:12:39.855Z,21.78
2023-03-04T00:17:41.236Z,21.84
2023-03-04T00:22:42.612Z,21.74
2023-03-04T00:27:44.042Z,21.76
2023-03-04T00:32:45.497Z,21.78
2023-03-04T00:37:46.914Z,21.85
2023-03-04T00:42:48.309Z,21.75
2023-03-04T00:47:49.687Z,21.68
2023-03-04T00:52:51.099Z,21.51
2023-03-04T00:57:52.532Z,21.77
2023-03-04T01:02:53.936Z,21.82
2023-03-04T01:07:55.334Z,21.62
2023-03-04T01:12:56.823Z,21.78
2023-03-04T01:17:58.267Z,21.76
2023-03-04T01:22:59.666Z,21.91
2023-03-04T01:28:01.051Z,21.85
2023-03-04T01:33:02.481Z,21.74
2023-03-04T01:38:05.192Z,21.86
2023-03-04T01:43:06.662Z,21.76
2023-03-04T01:48:09.333Z,21.79
2023-03-04T01:53:22.703Z,21.63
2023-03-04T01:58:25.939Z,21.75
2023-03-04T02:03:27.326Z,21.93
2023-03-04T02:08:28.698Z,21.65
2023-03-04T02:13:30.082Z,21.67
2023-03-04T02:18:31.452Z,21.70
2023-03-04T02:23:56.110Z,21.65
2023-03-04T02:28:58.434Z,21.71
2023-03-04T02:34:01.759Z,21.77
2023-03-04T02:39:05.791Z,21.79
2023-03-04T02:44:16.550Z,21.68
2023-03-04T02:49:18.230Z,21.69
2023-03-04T02:54:21.218Z,21.81
2023-03-04T02:59:22.656Z,21.65
2023-03-04T03:04:24.067Z,21.63
2023-03-04T03:09:25.460Z,21.57
2023-03-04T03:14:26.922Z,21.80
2023-03-04T03:19:28.312Z,21.77
2023-03-04T03:24:29.695Z,21.72
2023-03-04T03:29:31.078Z,21.64
2023-03-04T03:34:32.495Z,21.85
2023-03-04T03:39:33.883Z,21.79
2023-03-04T03:44:35.252Z,21.67
2023-03-04T03:49:36.623Z,21.68
2023-03-04T03:54:38.067Z,21.88
2023-03-04T03:59:39.456Z,21.69
2023-03-04T04:04:40.848Z,21.81
2023-03-04T04:09:42.287Z,21.73
2023-03-04T04:14:43.726Z,21.79
2023-03-04T04:19:45.160Z,21.91
2023-03-04T04:24:47.139Z,21.73
2023-03-04T04:29:48.539Z,21.67
2023-03-04T04:34:49.937Z,21.90
2023-03-04T04:39:51.745Z,21.77
2023-03-04T04:44:55.455Z,21.90
2023-03-04T04:49:56.837Z,21.73
2023-03-04T04:54:58.286Z,21.52
2023-03-04T04:59:59.659Z,21.50
2023-03-04T05:05:01.108Z,21.63
2023-03-04T05:10:02.579Z,21.67
2023-03-04T05:15:04.062Z,21.50
2023-03-04T05:20:07.029Z,21.39
2023-03-04T05:25:08.699Z,21.74
2023-03-04T05:30:10.738Z,21.83
2023-03-04T05:35:12.122Z,21.57
2023-03-04T05:40:13.656Z,21.69
2023-03-04T05:45:15.053Z,21.76
2023-03-04T05:50:16.495Z,21.68
2023-03-04T05:55:17.911Z,21.83
2023-03-04T06:00:19.420Z,21.64
2023-03-04T06:05:20.918Z,21.79
2023-03-04T06:10:22.362Z,21.89
2023-03-04T06:15:23.728Z,21.99
2023-03-04T06:20:25.108Z,21.70
2023-03-04T06:25:26.484Z,21.77
2023-03-04T06:30:28.083Z,21.92
2023-03-04T06:35:29.460Z,21.85
2023-03-04T06:40:30.903Z,21.92
2023-03-04T06:45:32.287Z,21.82
2023-03-04T06:50:33.668Z,22.21
2023-03-04T06:55:35.085Z,22.23
2023-03-04T07:00:36.509Z,22.36
2023-03-04T07:05:37.909Z,22.25
2023-03-04T07:10:39.307Z,21.99
2023-03-04T07:15:40.708Z,22.40
2023-03-04T07:20:42.087Z,22.48
2023-03-04T07:25:43.468Z,22.40
2023-03-04T07:30:44.902Z,22.40
2023-03-04T07:35:46.627Z,22.49
2023-03-04T07:40:57.892Z,22.80
2023-03-04T07:46:00.835Z,22.62
2023-03-04T07:51:19.007Z,22.67
2023-03-04T07:56:26.997Z,22.85
2023-03-04T08:01:30.230Z,22.82
2023-03-04T08:06:31.900Z,22.96
2023-03-04T08:11:33.985Z,22.99
2023-03-04T08:16:35.355Z,22.92
2023-03-04T08:21:36.771Z,23.20
2023-03-04T08:26:41.659Z,23.20
2023-03-04T08:31:45.834Z,23.08
2023-03-04T08:36:48.845Z,23.00
2023-03-04T08:41:50.303Z,23.44
2023-03-04T08:46:51.683Z,23.63
2023-03-04T08:51:53.051Z,23.28
2023-03-04T08:56:54.458Z,23.29
2023-03-04T09:01:55.869Z,23.65
2023-03-04T09:06:57.271Z,23.65
2023-03-04T09:11:58.655Z,23.75
2023-03-04T09:17:00.314Z,23.61
2023-03-04T09:22:02.051Z,23.89
2023-03-04T09:27:03.434Z,23.70
2023-03-04T09:32:05.042Z,23.93
2023-03-04T09:37:06.436Z,23.86
2023-03-04T09:42:08.860Z,23.66
2023-03-04T09:47:15.382Z,24.15
2023-03-04T09:52:43.146Z,24.04
2023-03-04T09:57:57.985Z,24.09
2023-03-04T10:03:09.733Z,23.81
2023-03-04T10:08:23.798Z,24.01
2023-03-04T10:13:54.135Z,24.48
2023-03-04T10:19:13.770Z,24.19
2023-03-04T10:24:17.927Z,24.34
2023-03-04T10:29:20.979Z,24.21
2023-03-04T10:34:22.590Z,24.41
2023-03-04T10:39:29.489Z,24.18
2023-03-04T10:44:31.536Z,24.39
2023-03-04T10:49:32.906Z,24.56
2023-03-04T10:54:53.341Z,24.67
2023-03-04T10:59:57.982Z,24.49
2023-03-04T11:05:14.516Z,24.65
2023-03-04T11:10:22.681Z,24.59
2023-03-04T11:15:27.230Z,24.60
2023-03-04T11:20:31.925Z,24.78
2023-03-04T11:25:38.458Z,24.67
2023-03-04T11:30:42.475Z,24.60
2023-03-04T11:36:10.139Z,24.79
2023-03-04T11:41:19.087Z,24.95
2023-03-04T11:46:35.581Z,24.97
2023-03-04T11:51:53.836Z,24.75
2023-03-04T11:57:17.841Z,24.74
2023-03-04T12:02:34.339Z,24.90
2023-03-04T12:07:54.019Z,25.09
2023-03-04T12:13:13.007Z,24.90
2023-03-04T12:18:27.221Z,24.96
2023-03-04T12:23:31.490Z,24.90
2023-03-04T12:28:52.215Z,25.03
2023-03-04T12:34:27.769Z,24.89
2023-03-04T12:39:38.051Z,24.70
2023-03-04T12:44:43.863Z,24.89
2023-03-04T12:50:14.470Z,24.95
2023-03-04T12:55:17.130Z,25.06
2023-03-04T13:00:33.642Z,24.76
2023-03-04T13:06:05.713Z,24.72
2023-03-04T13:11:25.957Z,24.84
2023-03-04T13:16:47.177Z,24.90
2023-03-04T13:21:48.681Z,24.84
2023-03-04T13:26:50.096Z,24.58
2023-03-04T13:32:24.459Z,24.44
2023-03-04T13:37:26.792Z,24.74
2023-03-04T13:42:43.830Z,24.66
2023-03-04T13:47:46.020Z,24.44
2023-03-04T13:52:47.392Z,24.31
2023-03-04T13:57:49.887Z,24.24
2023-03-04T14:02:51.267Z,24.44
2023-03-04T14:07:54.064Z,24.30
2023-03-04T14:12:58.210Z,24.30
2023-03-04T14:18:00.195Z,24.15
2023-03-04T14:23:02.829Z,24.36
2023-03-04T14:28:11.705Z,24.62
2023-03-04T14:33:20.715Z,24.37
2023-03-04T14:38:33.295Z,24.33
2023-03-04T14:43:37.433Z,24.45
2023-03-04T14:48:38.828Z,24.42
2023-03-04T14:53:52.860Z,24.40
2023-03-04T14:58:55.231Z,24.25
2023-03-04T15:03:58.344Z,24.30
2023-03-04T15:09:06.366Z,24.21
2023-03-04T15:14:35.506Z,24.22
2023-03-04T15:19:36.901Z,24.11
2023-03-04T15:24:38.269Z,23.95
2023-03-04T15:29:39.630Z,23.69
2023-03-04T15:34:40.991Z,23.59
2023-03-04T15:39:42.380Z,23.63
2023-03-04T15:44:44.027Z,23.26
2023-03-04T15:49:48.495Z,23.08
2023-03-04T15:54:49.864Z,22.87
2023-03-04T15:59:51.644Z,22.84
2023-03-04T16:04:53.679Z,23.10
2023-03-04T16:09:59.897Z,23.07
2023-03-04T16:15:01.274Z,22.81
2023-03-04T16:20:02.656Z,23.09
2023-03-04T16:25:04.353Z,22.99
2023-03-04T16:30:07.324Z,23.22
2023-03-04T16:35:09.167Z,23.36
2023-03-04T16:40:15.492Z,23.23
2023-03-04T16:45:24.273Z,23.40
2023-03-04T16:50:27.105Z,23.42
2023-03-04T16:55:28.802Z,23.50
2023-03-04T17:00:30.260Z,23.54
2023-03-04T17:05:32.273Z,23.89
2023-03-04T17:10:34.037Z,24.12
2023-03-04T17:15:35.412Z,24.30
2023-03-04T17:20:36.820Z,24.38
2023-03-04T17:25:38.202Z,24.42
2023-03-04T17:30:39.579Z,24.35
2023-03-04T17:35:41.042Z,24.41
2023-03-04T17:40:42.447Z,24.57
2023-03-04T17:45:43.860Z,24.68
2023-03-04T17:50:49.742Z,24.28
2023-03-04T17:55:51.482Z,24.24
2023-03-04T18:00:53.955Z,24.35
2023-03-04T18:05:55.595Z,24.36
2023-03-04T18:10:57.004Z,24.10
2023-03-04T18:15:58.606Z,23.80
2023-03-04T18:21:00.099Z,23.64
2023-03-04T18:26:02.391Z,23.60
2023-03-04T18:31:03.786Z,23.58
2023-03-04T18:36:09.343Z,23.44
2023-03-04T18:41:11.590Z,23.56
2023-03-04T18:46:24.735Z,23.75
2023-03-04T18:51:26.137Z,23.79
2023-03-04T18:56:49.972Z,23.75
2023-03-04T19:01:51.619Z,23.91
2023-03-04T19:06:53.248Z,23.82
2023-03-04T19:11:54.657Z,24.04
2023-03-04T19:16:56.151Z,23.80
2023-03-04T19:21:58.231Z,23.97
2023-03-04T19:26:59.618Z,23.91
2023-03-04T19:32:01.022Z,23.83
2023-03-04T19:37:02.437Z,24.09
2023-03-04T19:42:03.827Z,24.10
2023-03-04T19:47:05.311Z,23.88
2023-03-04T19:52:06.685Z,23.91
2023-03-04T19:57:08.082Z,23.91
2023-03-04T20:02:09.462Z,24.00
2023-03-04T20:07:10.847Z,23.95
2023-03-04T20:12:12.876Z,23.86
2023-03-04T20:17:15.050Z,23.80
2023-03-04T20:22:16.473Z,23.68
2023-03-04T20:27:17.939Z,23.89
2023-03-04T20:32:19.353Z,24.12
2023-03-04T20:37:20.960Z,24.02
2023-03-04T20:42:22.547Z,24.02
2023-03-04T20:47:23.917Z,24.23
2023-03-04T20:52:25.354Z,24.20
2023-03-04T20:57:26.722Z,24.34
2023-03-04T21:02:28.096Z,24.14
2023-03-04T21:07:29.472Z,24.17
2023-03-04T21:12:30.913Z,23.92
2023-03-04T21:17:32.289Z,24.11
2023-03-04T21:22:33.690Z,24.07
2023-03-04T21:27:38.587Z,24.15
2023-03-04T21:32:40.018Z,23.85
2023-03-04T21:37:41.729Z,24.11
2023-03-04T21:42:43.151Z,24.03
2023-03-04T21:47:44.568Z,23.82
2023-03-04T21:52:46.078Z,23.68
2023-03-04T21:57:47.452Z,23.57
2023-03-04T22:02:48.868Z,23.59
2023-03-04T22:07:50.235Z,23.33
2023-03-04T22:12:52.845Z,23.35
2023-03-04T22:17:54.222Z,23.46
2023-03-04T22:22:55.656Z,23.54
2023-03-04T22:27:57.029Z,23.44
2023-03-04T22:32:58.444Z,23.23
2023-03-04T22:37:59.820Z,23.26
2023-03-04T22:43:01.196Z,23.30
2023-03-04T22:48:02.606Z,23.09
2023-03-04T22:53:06.575Z,23.01
2023-03-04T22:58:07.939Z,23.06
2023-03-04T23:03:10.148Z,22.93
2023-03-04T23:08:11.527Z,23.04
2023-03-04T23:13:12.935Z,22.88
2023-03-04T23:18:14.304Z,23.03
2023-03-04T23:23:15.679Z,23.27
2023-03-04T23:28:17.052Z,22.88
2023-03-04T23:33:18.418Z,23.11
2023-03-04T23:38:19.805Z,22.71
2023-03-04T23:43:21.187Z,22.61
2023-03-04T23:48:22.608Z,22.54
2023-03-04T23:53:23.978Z,22.29
2023-03-04T23:58:25.394Z,22.36
